createdAt,value
2018-12-03T00:01:33.991Z,6.47
2018-12-03T00:02:12.375Z,7.37
2018-12-03T00:02:56.512Z,6.75
2018-12-03T00:03:34.900Z,6.35
2018-12-03T00:04:29.730Z,8.43
2018-12-03T00:05:08.078Z,7.28
2018-12-03T00:05:46.714Z,5.45
2018-12-03T00:06:26.588Z,6.65
2018-12-03T00:07:04.892Z,7.25
2018-12-03T00:07:42.992Z,5.87
2018-12-03T00:08:22.466Z,5.55
2018-12-03T00:09:01.741Z,6.70
2018-12-03T00:09:40.212Z,5.62
2018-12-03T00:10:18.293Z,5.70
2018-12-03T00:10:59.194Z,5.80
2018-12-03T00:11:37.762Z,5.42
2018-12-03T00:12:16.107Z,5.85
2018-12-03T00:12:54.633Z,6.12
2018-12-03T00:13:36.977Z,6.60
2018-12-03T00:14:18.901Z,8.55
2018-12-03T00:14:57.451Z,6.05
2018-12-03T00:15:36.621Z,6.00
2018-12-03T00:16:15.156Z,5.78
2018-12-03T00:16:53.709Z,6.22
2018-12-03T00:17:34.183Z,5.50
2018-12-03T00:18:12.953Z,5.58
2018-12-03T00:18:51.612Z,6.53
2018-12-03T00:19:30.320Z,5.70
2018-12-03T00:20:10.616Z,7.17
2018-12-03T00:20:48.795Z,5.58
2018-12-03T00:21:28.258Z,6.12
2018-12-03T00:22:07.835Z,6.45
2018-12-03T00:22:46.745Z,7.70
2018-12-03T00:23:25.744Z,6.92
2018-12-03T00:24:04.755Z,5.80
2018-12-03T00:24:45.546Z,5.40
2018-12-03T00:25:24.712Z,6.95
2018-12-03T00:26:04.891Z,6.75
2018-12-03T00:26:43.051Z,7.17
2018-12-03T00:27:21.171Z,7.60
2018-12-03T00:28:00.320Z,6.37
2018-12-03T00:28:40.093Z,7.00
2018-12-03T00:29:18.348Z,6.05
2018-12-03T00:29:57.490Z,5.62
2018-12-03T00:30:36.726Z,6.73
2018-12-03T00:31:18.257Z,6.17
2018-12-03T00:31:58.263Z,7.05
2018-12-03T00:32:37.724Z,7.70
2018-12-03T00:33:16.723Z,7.00
2018-12-03T00:33:54.968Z,6.12
2018-12-03T00:34:33.547Z,6.67
2018-12-03T00:35:15.855Z,6.00
2018-12-03T00:35:54.481Z,6.40
2018-12-03T00:36:33.857Z,6.45
2018-12-03T00:37:13.455Z,6.40
2018-12-03T00:37:52.936Z,6.58
2018-12-03T00:38:31.357Z,6.33
2018-12-03T00:39:12.011Z,6.22
2018-12-03T00:39:50.611Z,5.45
2018-12-03T00:40:29.293Z,5.80
2018-12-03T00:41:08.158Z,6.92
2018-12-03T00:41:46.819Z,8.33
2018-12-03T00:42:26.664Z,5.97
2018-12-03T00:43:06.451Z,6.50
2018-12-03T00:43:45.928Z,6.05
2018-12-03T00:44:24.141Z,6.10
2018-12-03T00:45:02.403Z,6.95
2018-12-03T00:45:40.515Z,6.80
2018-12-03T00:46:19.567Z,6.28
2018-12-03T00:47:00.046Z,7.17
2018-12-03T00:47:39.509Z,6.53
2018-12-03T00:48:19.061Z,6.33
2018-12-03T00:48:58.531Z,6.22
2018-12-03T00:49:39.377Z,6.08
2018-12-03T00:50:17.711Z,6.70
2018-12-03T00:50:58.585Z,6.30
2018-12-03T00:51:39.326Z,6.17
2018-12-03T00:52:17.323Z,6.22
2018-12-03T00:52:56.408Z,7.03
2018-12-03T00:53:35.052Z,7.45
2018-12-03T00:54:14.408Z,8.00
2018-12-03T00:54:52.647Z,7.33
2018-12-03T00:55:31.746Z,6.00
2018-12-03T00:56:11.335Z,6.37
2018-12-03T00:56:49.909Z,5.80
2018-12-03T00:57:28.016Z,6.75
2018-12-03T00:58:06.919Z,5.80
2018-12-03T00:58:45.212Z,6.42
2018-12-03T00:59:24.297Z,7.67
2018-12-03T01:00:04.118Z,6.17
2018-12-03T01:00:42.515Z,7.23
2018-12-03T01:01:21.858Z,5.90
2018-12-03T01:02:02.115Z,6.70
2018-12-03T01:02:40.474Z,6.80
2018-12-03T01:03:21.485Z,6.50
2018-12-03T01:03:59.965Z,5.80
2018-12-03T01:04:39.442Z,7.93
2018-12-03T01:05:17.808Z,6.85
2018-12-03T01:05:59.610Z,7.70
2018-12-03T01:06:38.434Z,6.17
2018-12-03T01:07:16.655Z,7.15
2018-12-03T01:07:55.258Z,9.83
2018-12-03T01:08:35.279Z,6.75
2018-12-03T01:09:14.903Z,5.78
2018-12-03T01:09:53.885Z,6.17
2018-12-03T01:10:33.706Z,7.85
2018-12-03T01:11:13.106Z,6.45
2018-12-03T01:11:55.025Z,5.87
2018-12-03T01:12:33.403Z,5.50
2018-12-03T01:13:12.051Z,8.95
2018-12-03T01:13:51.939Z,6.22
2018-12-03T01:14:30.836Z,6.95
2018-12-03T01:15:11.879Z,7.65
2018-12-03T01:15:50.904Z,7.47
2018-12-03T01:16:29.445Z,6.30
2018-12-03T01:17:13.109Z,6.30
2018-12-03T01:17:52.370Z,6.58
2018-12-03T01:18:31.648Z,5.80
2018-12-03T01:19:10.206Z,5.95
2018-12-03T01:19:49.800Z,6.37
2018-12-03T01:20:28.867Z,6.87
2018-12-03T01:21:07.509Z,6.62
2018-12-03T01:21:46.220Z,8.45
2018-12-03T01:22:25.173Z,6.50
2018-12-03T01:23:04.300Z,6.65
2018-12-03T01:23:42.442Z,6.55
2018-12-03T01:24:22.349Z,7.05
2018-12-03T01:25:02.301Z,9.03
2018-12-03T01:25:40.379Z,9.35
2018-12-03T01:26:19.400Z,6.40
2018-12-03T01:26:58.782Z,8.00
2018-12-03T01:27:37.501Z,6.58
2018-12-03T01:28:16.092Z,8.10
2018-12-03T01:28:54.742Z,5.92
2018-12-03T01:29:33.434Z,6.42
2018-12-03T01:30:15.690Z,9.80
2018-12-03T01:30:54.153Z,6.33
2018-12-03T01:31:32.671Z,6.60
2018-12-03T01:32:11.965Z,6.08
2018-12-03T01:32:51.070Z,6.45
2018-12-03T01:33:30.315Z,6.78
2018-12-03T01:34:09.407Z,6.95
2018-12-03T01:34:47.846Z,12.98
2018-12-03T01:35:26.881Z,9.53
2018-12-03T01:36:04.975Z,6.30
2018-12-03T01:36:43.621Z,10.43
2018-12-03T01:37:23.708Z,7.58
2018-12-03T01:38:02.857Z,9.78
2018-12-03T01:38:41.900Z,7.87
2018-12-03T01:39:22.861Z,5.97
2018-12-03T01:40:01.306Z,9.63
2018-12-03T01:40:40.641Z,7.73
2018-12-03T01:41:19.731Z,13.25
2018-12-03T01:41:59.453Z,7.33
2018-12-03T01:42:37.614Z,13.00
2018-12-03T01:43:16.070Z,8.20
2018-12-03T01:43:55.161Z,7.75
2018-12-03T01:44:33.800Z,8.33
2018-12-03T01:45:16.623Z,8.83
2018-12-03T01:45:56.862Z,10.10
2018-12-03T01:46:35.429Z,10.47
2018-12-03T01:47:13.596Z,10.15
2018-12-03T01:47:53.528Z,6.80
2018-12-03T01:48:32.046Z,6.33
2018-12-03T01:49:10.301Z,14.70
2018-12-03T01:49:49.803Z,8.68
2018-12-03T01:50:29.711Z,7.25
2018-12-03T01:51:09.477Z,8.28
2018-12-03T01:51:48.548Z,8.85
2018-12-03T01:52:28.323Z,7.85
2018-12-03T01:53:07.636Z,7.80
2018-12-03T01:53:46.734Z,9.15
2018-12-03T01:54:24.755Z,8.03
2018-12-03T01:55:02.872Z,7.67
2018-12-03T01:55:42.347Z,7.08
2018-12-03T01:56:21.860Z,7.62
2018-12-03T01:57:00.101Z,7.45
2018-12-03T01:57:38.560Z,8.40
2018-12-03T01:58:17.612Z,7.67
2018-12-03T01:58:56.162Z,6.97
2018-12-03T01:59:34.570Z,9.45
2018-12-03T02:00:18.007Z,7.33
2018-12-03T02:00:57.350Z,6.58
2018-12-03T02:01:35.527Z,7.37
2018-12-03T02:02:14.803Z,10.48
2018-12-03T02:02:53.071Z,6.20
2018-12-03T02:03:32.068Z,9.98
2018-12-03T02:04:10.285Z,8.65
2018-12-03T02:04:49.292Z,6.60
2018-12-03T02:05:27.545Z,6.60
2018-12-03T02:06:06.589Z,7.60
2018-12-03T02:06:44.711Z,7.12
2018-12-03T02:07:25.067Z,10.18
2018-12-03T02:08:04.343Z,8.28
2018-12-03T02:08:43.004Z,9.93
2018-12-03T02:09:22.960Z,7.72
2018-12-03T02:10:01.189Z,16.97
2018-12-03T02:10:40.478Z,9.78
2018-12-03T02:11:18.865Z,8.08
2018-12-03T02:11:57.466Z,7.47
2018-12-03T02:12:36.642Z,7.10
2018-12-03T02:13:15.785Z,9.95
2018-12-03T02:13:55.513Z,7.17
2018-12-03T02:14:37.723Z,7.22
2018-12-03T02:15:20.328Z,7.92
2018-12-03T02:16:00.330Z,8.63
2018-12-03T02:16:39.098Z,8.85
2018-12-03T02:17:19.949Z,9.85
2018-12-03T02:17:58.299Z,7.00
2018-12-03T02:18:37.767Z,6.20
2018-12-03T02:19:16.463Z,7.55
2018-12-03T02:19:55.293Z,6.75
2018-12-03T02:20:33.381Z,6.70
2018-12-03T02:21:12.466Z,10.60
2018-12-03T02:21:51.048Z,10.43
2018-12-03T02:22:31.663Z,9.73
2018-12-03T02:23:10.314Z,8.10
2018-12-03T02:23:48.750Z,9.50
2018-12-03T02:24:27.942Z,9.48
2018-12-03T02:25:06.640Z,8.03
2018-12-03T02:25:45.799Z,8.33
2018-12-03T02:26:24.079Z,7.15
2018-12-03T02:27:02.257Z,12.80
2018-12-03T02:27:42.035Z,8.65
2018-12-03T02:28:20.111Z,8.65
2018-12-03T02:28:59.145Z,8.13
2018-12-03T02:29:38.743Z,6.33
2018-12-03T02:30:19.866Z,7.90
2018-12-03T02:30:59.277Z,9.10
2018-12-03T02:31:37.539Z,7.97
2018-12-03T02:32:15.823Z,8.68
2018-12-03T02:32:55.176Z,6.95
2018-12-03T02:33:34.549Z,7.45
2018-12-03T02:34:13.573Z,9.40
2018-12-03T02:34:53.266Z,7.70
2018-12-03T02:35:31.398Z,8.65
2018-12-03T02:36:10.758Z,13.08
2018-12-03T02:36:55.774Z,8.20
2018-12-03T02:37:34.284Z,9.45
2018-12-03T02:38:13.841Z,8.98
2018-12-03T02:38:53.548Z,10.50
2018-12-03T02:39:31.806Z,8.33
2018-12-03T02:40:12.561Z,10.40
2018-12-03T02:40:52.911Z,10.03
2018-12-03T02:41:32.940Z,11.15
2018-12-03T02:42:12.568Z,9.35
2018-12-03T02:42:50.903Z,11.65
2018-12-03T02:43:29.689Z,11.75
2018-12-03T02:44:08.944Z,9.78
2018-12-03T02:44:47.007Z,11.88
2018-12-03T02:45:27.109Z,10.68
2018-12-03T02:46:06.038Z,9.13
2018-12-03T02:46:45.188Z,14.30
2018-12-03T02:47:23.329Z,10.43
2018-12-03T02:48:01.584Z,10.60
2018-12-03T02:48:41.115Z,13.40
2018-12-03T02:49:20.785Z,12.63
2018-12-03T02:49:58.818Z,10.20
2018-12-03T02:50:38.022Z,13.40
2018-12-03T02:51:16.342Z,11.48
2018-12-03T02:51:54.714Z,10.90
2018-12-03T02:52:32.979Z,9.98
2018-12-03T02:53:11.604Z,8.95
2018-12-03T02:53:50.047Z,17.23
2018-12-03T02:54:28.623Z,12.58
2018-12-03T02:55:09.516Z,11.73
2018-12-03T02:55:48.136Z,9.90
2018-12-03T02:56:26.437Z,14.93
2018-12-03T02:57:05.893Z,12.95
2018-12-03T02:57:44.674Z,12.25
2018-12-03T02:58:24.300Z,12.23
2018-12-03T02:59:03.237Z,14.30
2018-12-03T02:59:43.451Z,10.00
2018-12-03T03:00:22.607Z,13.05
2018-12-03T03:01:02.215Z,14.65
2018-12-03T03:01:40.648Z,12.28
2018-12-03T03:02:20.760Z,9.55
2018-12-03T03:02:59.020Z,11.20
2018-12-03T03:03:38.439Z,10.32
2018-12-03T03:04:17.779Z,11.90
2018-12-03T03:04:56.113Z,10.23
2018-12-03T03:05:34.709Z,11.88
2018-12-03T03:06:12.824Z,13.00
2018-12-03T03:06:52.026Z,12.85
2018-12-03T03:07:30.202Z,12.47
2018-12-03T03:08:08.881Z,16.65
2018-12-03T03:08:48.145Z,13.00
2018-12-03T03:09:26.752Z,10.38
2018-12-03T03:10:07.936Z,11.95
2018-12-03T03:10:47.219Z,11.30
2018-12-03T03:11:26.440Z,10.15
2018-12-03T03:12:06.625Z,10.70
2018-12-03T03:12:48.802Z,11.78
2018-12-03T03:13:27.391Z,8.15
2018-12-03T03:14:07.728Z,13.48
2018-12-03T03:14:47.239Z,10.70
2018-12-03T03:15:28.018Z,11.05
2018-12-03T03:16:08.506Z,10.60
2018-12-03T03:16:46.712Z,11.48
2018-12-03T03:17:26.525Z,12.23
2018-12-03T03:18:04.594Z,12.68
2018-12-03T03:18:42.857Z,12.80
2018-12-03T03:19:21.064Z,11.70
2018-12-03T03:20:00.976Z,11.60
2018-12-03T03:20:40.000Z,12.70
2018-12-03T03:21:20.574Z,20.97
2018-12-03T03:22:02.407Z,16.77
2018-12-03T03:22:40.761Z,11.80
2018-12-03T03:23:18.936Z,12.30
2018-12-03T03:23:57.444Z,13.72
2018-12-03T03:24:35.659Z,15.33
2018-12-03T03:25:16.311Z,9.30
2018-12-03T03:25:54.994Z,14.58
2018-12-03T03:26:33.532Z,9.95
2018-12-03T03:27:14.836Z,13.72
2018-12-03T03:27:56.131Z,13.08
2018-12-03T03:28:34.693Z,12.43
2018-12-03T03:29:13.336Z,12.78
2018-12-03T03:29:52.004Z,12.10
2018-12-03T03:30:30.319Z,12.88
2018-12-03T03:31:09.884Z,11.68
2018-12-03T03:31:49.170Z,10.18
2018-12-03T03:32:28.491Z,11.10
2018-12-03T03:33:07.077Z,11.75
2018-12-03T03:33:45.254Z,13.65
2018-12-03T03:34:23.840Z,10.98
2018-12-03T03:35:02.455Z,11.30
2018-12-03T03:35:41.788Z,10.05
2018-12-03T03:36:23.239Z,11.65
2018-12-03T03:37:02.683Z,12.18
2018-12-03T03:37:41.039Z,9.20
2018-12-03T03:38:20.750Z,8.95
2018-12-03T03:38:59.929Z,13.38
2018-12-03T03:39:38.638Z,10.18
2018-12-03T03:40:18.187Z,10.45
2018-12-03T03:40:56.217Z,10.85
2018-12-03T03:41:34.149Z,12.75
2018-12-03T03:42:12.078Z,13.10
2018-12-03T03:42:51.116Z,10.72
2018-12-03T03:43:29.031Z,12.10
2018-12-03T03:44:08.097Z,13.85
2018-12-03T03:44:47.348Z,15.45
2018-12-03T03:45:26.875Z,11.68
2018-12-03T03:46:10.704Z,13.48
2018-12-03T03:46:48.655Z,9.73
2018-12-03T03:47:26.673Z,12.00
2018-12-03T03:48:04.736Z,10.95
2018-12-03T03:48:42.729Z,9.73
2018-12-03T03:49:20.703Z,9.45
2018-12-03T03:49:58.851Z,10.00
2018-12-03T03:50:36.887Z,11.80
2018-12-03T03:51:14.910Z,12.43
2018-12-03T03:51:52.955Z,11.43
2018-12-03T03:52:30.969Z,12.63
2018-12-03T03:53:08.974Z,9.48
2018-12-03T03:53:46.975Z,11.50
2018-12-03T03:54:26.045Z,9.23
2018-12-03T03:55:04.143Z,10.82
2018-12-03T03:55:44.838Z,15.90
2018-12-03T03:56:25.320Z,10.53
2018-12-03T03:57:04.203Z,15.45
2018-12-03T03:57:42.852Z,10.32
2018-12-03T03:58:23.805Z,10.98
2018-12-03T03:59:02.359Z,11.22
2018-12-03T03:59:40.894Z,12.65
2018-12-03T04:00:20.621Z,13.15
2018-12-03T04:01:00.026Z,9.98
2018-12-03T04:01:38.368Z,11.40
2018-12-03T04:02:22.563Z,16.12
2018-12-03T04:03:00.717Z,13.10
2018-12-03T04:03:53.377Z,11.03
2018-12-03T04:04:34.455Z,10.68
2018-12-03T04:05:13.787Z,10.55
2018-12-03T04:05:52.436Z,12.88
2018-12-03T04:06:31.543Z,9.58
2018-12-03T04:07:14.369Z,11.25
2018-12-03T04:07:54.025Z,10.50
2018-12-03T04:08:32.587Z,9.88
2018-12-03T04:09:12.664Z,11.03
2018-12-03T04:09:52.460Z,12.43
2018-12-03T04:10:32.175Z,12.68
2018-12-03T04:11:10.608Z,10.08
2018-12-03T04:11:50.109Z,9.35
2018-12-03T04:12:30.302Z,11.08
2018-12-03T04:13:08.859Z,12.33
2018-12-03T04:13:47.887Z,10.70
2018-12-03T04:14:27.191Z,10.58
2018-12-03T04:15:06.423Z,9.88
2018-12-03T04:15:46.163Z,10.60
2018-12-03T04:16:25.996Z,9.18
2018-12-03T04:17:04.900Z,13.83
2018-12-03T04:17:43.827Z,9.85
2018-12-03T04:18:23.408Z,10.15
2018-12-03T04:19:01.907Z,12.75
2018-12-03T04:19:41.304Z,8.58
2018-12-03T04:20:23.985Z,12.18
2018-12-03T04:21:02.146Z,10.15
2018-12-03T04:21:40.395Z,12.25
2018-12-03T04:22:18.870Z,8.83
2018-12-03T04:22:58.040Z,9.00
2018-12-03T04:23:36.110Z,9.45
2018-12-03T04:24:14.623Z,8.85
2018-12-03T04:24:53.982Z,9.78
2018-12-03T04:25:32.996Z,9.30
2018-12-03T04:26:12.238Z,8.55
2018-12-03T04:26:50.754Z,9.88
2018-12-03T04:27:30.650Z,9.55
2018-12-03T04:28:08.821Z,12.18
2018-12-03T04:28:47.002Z,13.00
2018-12-03T04:29:25.963Z,14.33
2018-12-03T04:30:05.645Z,12.60
2018-12-03T04:30:43.719Z,9.13
2018-12-03T04:31:22.270Z,11.75
2018-12-03T04:32:01.413Z,9.93
2018-12-03T04:32:39.816Z,9.13
2018-12-03T04:33:18.260Z,10.08
2018-12-03T04:33:56.864Z,10.80
2018-12-03T04:34:35.348Z,10.27
2018-12-03T04:35:14.755Z,10.20
2018-12-03T04:35:54.300Z,9.53
2018-12-03T04:36:33.925Z,12.95
2018-12-03T04:37:14.295Z,9.50
2018-12-03T04:37:54.410Z,10.13
2018-12-03T04:38:33.377Z,11.30
2018-12-03T04:39:12.691Z,15.00
2018-12-03T04:39:51.107Z,8.98
2018-12-03T04:40:29.642Z,12.33
2018-12-03T04:41:08.201Z,10.78
2018-12-03T04:41:46.590Z,8.95
2018-12-03T04:42:26.537Z,9.55
2018-12-03T04:43:04.785Z,13.22
2018-12-03T04:43:44.887Z,10.43
2018-12-03T04:44:24.175Z,9.05
2018-12-03T04:45:02.269Z,10.50
2018-12-03T04:45:42.759Z,11.50
2018-12-03T04:46:21.268Z,9.45
2018-12-03T04:46:59.856Z,9.78
2018-12-03T04:47:38.321Z,11.12
2018-12-03T04:48:17.142Z,8.53
2018-12-03T04:48:55.497Z,10.93
2018-12-03T04:49:33.878Z,9.05
2018-12-03T04:50:16.662Z,14.45
2018-12-03T04:50:55.789Z,10.53
2018-12-03T04:51:35.076Z,10.95
2018-12-03T04:52:15.225Z,9.73
2018-12-03T04:52:53.476Z,9.03
2018-12-03T04:53:33.261Z,8.45
2018-12-03T04:54:11.633Z,10.38
2018-12-03T04:54:50.597Z,9.93
2018-12-03T04:55:28.989Z,9.73
2018-12-03T04:56:08.092Z,12.60
2018-12-03T04:56:48.415Z,10.05
2018-12-03T04:57:27.311Z,8.38
2018-12-03T04:58:07.396Z,11.65
2018-12-03T04:58:46.644Z,8.75
2018-12-03T04:59:25.743Z,10.68
2018-12-03T05:00:04.810Z,11.83
2018-12-03T05:00:44.100Z,11.70
2018-12-03T05:01:24.226Z,9.43
2018-12-03T05:02:03.672Z,9.68
2018-12-03T05:02:42.126Z,8.80
2018-12-03T05:03:20.691Z,8.93
2018-12-03T05:03:59.799Z,8.70
2018-12-03T05:04:39.692Z,7.73
2018-12-03T05:05:19.004Z,8.03
2018-12-03T05:05:57.888Z,9.78
2018-12-03T05:06:37.147Z,10.85
2018-12-03T05:07:16.436Z,7.80
2018-12-03T05:07:55.454Z,9.48
2018-12-03T05:08:34.582Z,8.63
2018-12-03T05:09:13.638Z,8.45
2018-12-03T05:09:52.846Z,11.68
2018-12-03T05:10:32.056Z,8.20
2018-12-03T05:11:11.677Z,9.83
2018-12-03T05:11:50.140Z,9.50
2018-12-03T05:12:29.502Z,8.28
2018-12-03T05:13:09.762Z,8.03
2018-12-03T05:13:49.062Z,10.25
2018-12-03T05:14:27.260Z,11.57
2018-12-03T05:15:05.882Z,8.15
2018-12-03T05:15:44.238Z,6.25
2018-12-03T05:16:32.880Z,8.38
2018-12-03T05:17:12.426Z,8.28
2018-12-03T05:17:50.741Z,9.63
2018-12-03T05:18:31.485Z,9.35
2018-12-03T05:19:11.136Z,7.15
2018-12-03T05:19:51.443Z,7.67
2018-12-03T05:20:31.004Z,7.33
2018-12-03T05:21:09.261Z,8.15
2018-12-03T05:21:49.448Z,8.83
2018-12-03T05:22:27.719Z,7.83
2018-12-03T05:23:07.499Z,8.78
2018-12-03T05:23:47.471Z,7.75
2018-12-03T05:24:29.442Z,7.55
2018-12-03T05:25:09.445Z,7.67
2018-12-03T05:25:50.489Z,8.55
2018-12-03T05:26:29.876Z,8.25
2018-12-03T05:27:09.093Z,6.75
2018-12-03T05:27:47.096Z,6.28
2018-12-03T05:28:25.537Z,6.87
2018-12-03T05:29:03.517Z,6.70
2018-12-03T05:29:43.372Z,7.75
2018-12-03T05:30:23.019Z,6.62
2018-12-03T05:31:02.060Z,7.03
2018-12-03T05:31:41.299Z,6.83
2018-12-03T05:32:19.939Z,6.67
2018-12-03T05:32:58.097Z,6.17
2018-12-03T05:33:36.782Z,6.75
2018-12-03T05:34:15.814Z,6.85
2018-12-03T05:34:55.090Z,6.45
2018-12-03T05:35:34.156Z,7.45
2018-12-03T05:36:13.097Z,5.70
2018-12-03T05:36:52.703Z,9.30
2018-12-03T05:37:33.443Z,7.62
2018-12-03T05:38:12.952Z,7.00
2018-12-03T05:38:51.021Z,7.22
2018-12-03T05:39:29.310Z,7.15
2018-12-03T05:40:15.237Z,6.05
2018-12-03T05:40:53.710Z,6.55
2018-12-03T05:41:31.852Z,7.05
2018-12-03T05:42:11.852Z,7.37
2018-12-03T05:42:50.806Z,9.20
2018-12-03T05:43:30.738Z,6.17
2018-12-03T05:44:09.146Z,6.53
2018-12-03T05:44:47.395Z,6.35
2018-12-03T05:45:26.455Z,6.17
2018-12-03T05:46:05.589Z,6.22
2018-12-03T05:46:47.371Z,7.40
2018-12-03T05:47:28.789Z,6.22
2018-12-03T05:48:07.528Z,5.53
2018-12-03T05:48:45.735Z,6.33
2018-12-03T05:49:26.586Z,7.85
2018-12-03T05:50:04.834Z,5.58
2018-12-03T05:50:44.033Z,6.00
2018-12-03T05:51:23.189Z,6.37
2018-12-03T05:52:06.706Z,6.62
2018-12-03T05:52:45.970Z,7.22
2018-12-03T05:53:25.310Z,5.40
2018-12-03T05:54:03.356Z,6.00
2018-12-03T05:54:41.762Z,8.00
2018-12-03T05:55:20.457Z,7.65
2018-12-03T05:55:58.824Z,7.20
2018-12-03T05:56:38.255Z,6.07
2018-12-03T05:57:17.996Z,7.25
2018-12-03T05:57:56.365Z,6.35
2018-12-03T05:58:35.829Z,5.77
2018-12-03T05:59:15.054Z,6.15
2018-12-03T05:59:53.527Z,5.40
2018-12-03T06:00:34.013Z,5.70
2018-12-03T06:01:12.691Z,11.00
2018-12-03T06:01:53.052Z,6.55
2018-12-03T06:02:32.845Z,5.83
2018-12-03T06:03:12.308Z,6.95
2018-12-03T06:03:51.133Z,5.37
2018-12-03T06:04:30.434Z,6.87
2018-12-03T06:05:10.801Z,7.60
2018-12-03T06:05:50.102Z,6.03
2018-12-03T06:06:28.075Z,5.25
2018-12-03T06:07:06.443Z,5.45
2018-12-03T06:07:45.573Z,6.58
2018-12-03T06:08:25.252Z,6.33
2018-12-03T06:09:03.915Z,6.28
2018-12-03T06:09:43.039Z,7.60
2018-12-03T06:10:24.021Z,5.83
2018-12-03T06:11:03.655Z,6.35
2018-12-03T06:11:43.811Z,6.75
2018-12-03T06:12:23.345Z,5.75
2018-12-03T06:13:02.287Z,6.05
2018-12-03T06:13:40.710Z,7.85
2018-12-03T06:14:21.930Z,7.78
2018-12-03T06:15:00.104Z,5.80
2018-12-03T06:15:38.651Z,5.28
2018-12-03T06:16:17.520Z,7.92
2018-12-03T06:16:56.647Z,7.03
2018-12-03T06:17:35.622Z,6.40
2018-12-03T06:18:13.666Z,6.75
2018-12-03T06:18:53.865Z,4.87
2018-12-03T06:19:33.030Z,6.12
2018-12-03T06:20:15.487Z,5.45
2018-12-03T06:20:56.497Z,9.63
2018-12-03T06:21:35.194Z,4.75
2018-12-03T06:22:15.413Z,5.25
2018-12-03T06:22:56.895Z,6.37
2018-12-03T06:23:36.403Z,5.47
2018-12-03T06:24:14.442Z,6.15
2018-12-03T06:24:53.996Z,5.42
2018-12-03T06:25:33.489Z,5.15
2018-12-03T06:26:12.899Z,7.80
2018-12-03T06:26:51.107Z,4.95
2018-12-03T06:27:30.016Z,5.35
2018-12-03T06:28:08.851Z,5.85
2018-12-03T06:28:47.852Z,5.95
2018-12-03T06:29:26.796Z,4.42
2018-12-03T06:30:05.049Z,7.47
2018-12-03T06:30:44.589Z,4.80
2018-12-03T06:31:23.387Z,5.60
2018-12-03T06:32:01.678Z,5.08
2018-12-03T06:32:39.911Z,4.83
2018-12-03T06:33:19.968Z,4.78
2018-12-03T06:33:59.424Z,5.70
2018-12-03T06:34:37.616Z,5.30
2018-12-03T06:35:16.634Z,5.87
2018-12-03T06:35:55.792Z,5.72
2018-12-03T06:36:34.147Z,6.33
2018-12-03T06:37:12.533Z,4.42
2018-12-03T06:37:54.303Z,5.22
2018-12-03T06:38:33.853Z,4.92
2018-12-03T06:39:15.095Z,5.95
2018-12-03T06:39:53.074Z,7.05
2018-12-03T06:40:33.764Z,5.87
2018-12-03T06:41:13.561Z,6.95
2018-12-03T06:41:52.627Z,5.10
2018-12-03T06:42:30.502Z,6.53
2018-12-03T06:43:09.203Z,7.33
2018-12-03T06:43:47.753Z,5.45
2018-12-03T06:44:25.918Z,5.10
2018-12-03T06:45:04.623Z,6.70
2018-12-03T06:45:42.949Z,5.33
2018-12-03T06:46:22.086Z,5.92
2018-12-03T06:47:01.705Z,6.58
2018-12-03T06:47:40.231Z,4.90
2018-12-03T06:48:25.315Z,9.83
2018-12-03T06:49:04.902Z,6.45
2018-12-03T06:49:43.526Z,4.70
2018-12-03T06:50:21.891Z,6.60
2018-12-03T06:51:00.219Z,4.83
2018-12-03T06:51:39.399Z,5.10
2018-12-03T06:52:18.589Z,6.33
2018-12-03T06:52:57.855Z,4.95
2018-12-03T06:53:36.201Z,5.62
2018-12-03T06:54:15.780Z,4.87
2018-12-03T06:54:56.231Z,7.78
2018-12-03T06:55:35.216Z,4.62
2018-12-03T06:56:16.223Z,5.35
2018-12-03T06:56:54.905Z,5.20
2018-12-03T06:57:33.422Z,5.42
2018-12-03T06:58:11.572Z,6.22
2018-12-03T06:58:49.864Z,5.15
2018-12-03T06:59:32.668Z,5.90
2018-12-03T07:00:15.517Z,7.25
2018-12-03T07:00:53.660Z,5.65
2018-12-03T07:01:33.025Z,5.45
2018-12-03T07:02:11.246Z,5.40
2018-12-03T07:02:50.616Z,4.85
2018-12-03T07:03:28.936Z,7.20
2018-12-03T07:04:08.676Z,6.50
2018-12-03T07:04:46.935Z,7.90
2018-12-03T07:05:29.217Z,5.08
2018-12-03T07:06:07.549Z,5.00
2018-12-03T07:06:47.935Z,5.33
2018-12-03T07:07:30.496Z,5.35
2018-12-03T07:08:11.012Z,5.00
2018-12-03T07:08:52.209Z,6.35
2018-12-03T07:09:31.320Z,5.10
2018-12-03T07:10:14.848Z,4.67
2018-12-03T07:10:54.871Z,6.62
2018-12-03T07:11:33.829Z,4.25
2018-12-03T07:12:12.077Z,7.83
2018-12-03T07:12:52.567Z,4.45
2018-12-03T07:13:31.767Z,6.50
2018-12-03T07:14:10.642Z,4.78
2018-12-03T07:14:48.770Z,5.15
2018-12-03T07:15:29.686Z,4.87
2018-12-03T07:16:08.133Z,5.12
2018-12-03T07:16:47.296Z,5.42
2018-12-03T07:17:25.587Z,7.90
2018-12-03T07:18:03.997Z,5.28
2018-12-03T07:18:42.883Z,4.67
2018-12-03T07:19:22.288Z,5.55
2018-12-03T07:20:01.579Z,5.10
2018-12-03T07:20:40.028Z,5.03
2018-12-03T07:21:18.965Z,6.25
2018-12-03T07:22:01.117Z,6.28
2018-12-03T07:22:42.503Z,6.20
2018-12-03T07:23:22.695Z,5.83
2018-12-03T07:24:01.830Z,5.90
2018-12-03T07:24:40.271Z,6.40
2018-12-03T07:25:19.500Z,4.72
2018-12-03T07:25:57.964Z,5.45
2018-12-03T07:26:36.426Z,4.80
2018-12-03T07:27:15.206Z,5.53
2018-12-03T07:27:57.121Z,7.43
2018-12-03T07:28:36.275Z,6.27
2018-12-03T07:29:15.581Z,5.25
2018-12-03T07:29:53.655Z,4.40
2018-12-03T07:30:33.116Z,5.12
2018-12-03T07:31:12.297Z,5.45
2018-12-03T07:31:51.734Z,4.92
2018-12-03T07:32:30.944Z,4.35
2018-12-03T07:33:09.418Z,6.08
2018-12-03T07:33:48.496Z,4.67
2018-12-03T07:34:28.850Z,7.00
2018-12-03T07:35:06.975Z,5.15
2018-12-03T07:35:47.234Z,5.35
2018-12-03T07:36:26.324Z,5.03
2018-12-03T07:37:05.243Z,4.47
2018-12-03T07:37:43.989Z,6.00
2018-12-03T07:38:22.508Z,5.10
2018-12-03T07:39:02.601Z,9.28
2018-12-03T07:39:41.578Z,5.90
2018-12-03T07:40:21.018Z,4.85
2018-12-03T07:40:59.108Z,7.08
2018-12-03T07:41:38.714Z,5.50
2018-12-03T07:42:19.018Z,7.05
2018-12-03T07:43:00.505Z,6.83
2018-12-03T07:43:39.815Z,6.33
2018-12-03T07:44:18.020Z,4.80
2018-12-03T07:44:55.984Z,5.37
2018-12-03T07:45:33.996Z,8.10
2018-12-03T07:46:13.355Z,4.97
2018-12-03T07:46:53.501Z,6.60
2018-12-03T07:47:32.440Z,4.70
2018-12-03T07:48:13.367Z,6.85
2018-12-03T07:48:51.727Z,5.00
2018-12-03T07:49:30.570Z,5.15
2018-12-03T07:50:11.653Z,9.40
2018-12-03T07:50:51.263Z,5.50
2018-12-03T07:51:33.387Z,8.20
2018-12-03T07:52:12.337Z,5.55
2018-12-03T07:52:51.773Z,4.80
2018-12-03T07:53:31.092Z,5.97
2018-12-03T07:54:13.152Z,7.30
2018-12-03T07:54:52.077Z,5.28
2018-12-03T07:55:31.040Z,4.53
2018-12-03T07:56:11.762Z,4.78
2018-12-03T07:56:49.832Z,7.10
2018-12-03T07:57:27.840Z,4.78
2018-12-03T07:58:10.296Z,6.62
2018-12-03T07:58:49.587Z,8.30
2018-12-03T07:59:27.893Z,6.90
2018-12-03T08:00:05.905Z,6.05
2018-12-03T08:00:46.010Z,5.70
2018-12-03T08:01:23.973Z,5.65
2018-12-03T08:02:02.506Z,5.17
2018-12-03T08:02:41.427Z,5.53
2018-12-03T08:03:19.568Z,4.67
2018-12-03T08:03:57.967Z,5.35
2018-12-03T08:04:36.223Z,5.22
2018-12-03T08:05:15.697Z,4.37
2018-12-03T08:05:55.609Z,6.40
2018-12-03T08:06:35.693Z,4.50
2018-12-03T08:07:14.063Z,4.42
2018-12-03T08:07:52.099Z,6.17
2018-12-03T08:08:32.232Z,4.65
2018-12-03T08:09:12.308Z,7.75
2018-12-03T08:09:50.982Z,5.08
2018-12-03T08:10:30.081Z,4.70
2018-12-03T08:11:08.289Z,7.75
2018-12-03T08:11:47.273Z,4.85
2018-12-03T08:12:26.450Z,5.12
2018-12-03T08:13:05.251Z,8.10
2018-12-03T08:13:44.907Z,4.78
2018-12-03T08:14:24.475Z,5.67
2018-12-03T08:15:03.014Z,4.53
2018-12-03T08:15:42.445Z,4.20
2018-12-03T08:16:20.730Z,5.10
2018-12-03T08:16:59.615Z,5.42
2018-12-03T08:17:38.000Z,5.92
2018-12-03T08:18:20.304Z,5.35
2018-12-03T08:18:59.017Z,5.45
2018-12-03T08:19:38.011Z,5.00
2018-12-03T08:20:23.554Z,9.55
2018-12-03T08:21:10.704Z,5.30
2018-12-03T08:21:49.011Z,5.40
2018-12-03T08:22:28.432Z,4.83
2018-12-03T08:23:10.780Z,4.60
2018-12-03T08:23:59.675Z,8.70
2018-12-03T08:24:38.233Z,4.20
2018-12-03T08:25:18.395Z,5.08
2018-12-03T08:25:57.493Z,5.20
2018-12-03T08:26:36.868Z,3.80
2018-12-03T08:27:15.201Z,4.22
2018-12-03T08:27:54.370Z,5.03
2018-12-03T08:28:32.840Z,4.65
2018-12-03T08:29:11.137Z,5.40
2018-12-03T08:29:49.833Z,4.75
2018-12-03T08:30:28.760Z,4.95
2018-12-03T08:31:07.217Z,3.97
2018-12-03T08:31:45.645Z,6.53
2018-12-03T08:32:23.796Z,6.60
2018-12-03T08:33:02.246Z,4.00
2018-12-03T08:33:41.571Z,6.45
2018-12-03T08:34:20.776Z,3.50
2018-12-03T08:34:59.608Z,8.13
2018-12-03T08:35:37.929Z,6.40
2018-12-03T08:36:16.330Z,5.47
2018-12-03T08:36:54.657Z,4.58
2018-12-03T08:37:32.721Z,4.42
2018-12-03T08:38:11.413Z,5.03
2018-12-03T08:38:50.804Z,4.60
2018-12-03T08:39:29.582Z,4.85
2018-12-03T08:40:09.078Z,5.62
2018-12-03T08:40:47.507Z,7.03